Time;durP1;ratioP1;P1;durP2;ratioP2;P2;SDS_P1;SDS_P2;PMS_P1;PMS_P2;Temp;Humidity;BMP_temperature;BMP_pressure;BME280_temperature;BME280_humidity;BME280_pressure;Samples;Min_cycle;Max_cycle;Signal;HPM_P1;HPM_P2
2022/07/20 00:02:21;;;;;;;;;20.50;19.75;;;;;27.73;46.07;100650.97;4990862;28;45696;-78
2022/07/20 00:04:49;;;;;;;;;29.00;24.00;;;;;27.76;45.68;100664.25;4991361;28;47119;-79
2022/07/20 00:07:14;;;;;;;;;29.25;22.50;;;;;27.68;45.72;100663.25;4990846;28;45471;-78
2022/07/20 00:12:24;;;;;;;;;27.00;21.00;;;;;27.59;45.41;100676.66;4991004;28;45495;-78
2022/07/20 00:14:49;;;;;;;;;22.50;22.25;;;;;27.57;45.77;100662.34;4992789;28;45597;-79
2022/07/20 00:17:15;;;;;;;;;23.50;20.75;;;;;27.56;46.45;100684.19;4991234;28;45505;-78
2022/07/20 00:19:40;;;;;;;;;22.75;19.75;;;;;27.52;45.97;100731.63;4993112;28;45603;-78
2022/07/20 00:22:06;;;;;;;;;23.75;19.50;;;;;27.51;46.29;100757.88;4990300;28;45631;-80
2022/07/20 00:24:32;;;;;;;;;23.50;21.25;;;;;27.46;46.54;100800.84;4993997;28;45529;-80
2022/07/20 00:26:57;;;;;;;;;23.00;19.00;;;;;27.41;47.24;100816.69;4991988;28;45526;-78
2022/07/20 00:29:24;;;;;;;;;20.25;19.00;;;;;27.31;47.20;100830.16;4992495;28;45519;-80
2022/07/20 00:31:49;;;;;;;;;21.75;20.75;;;;;27.27;47.50;100828.69;4990790;28;45487;-79
2022/07/20 00:34:14;;;;;;;;;24.50;19.75;;;;;27.20;47.54;100847.38;4991352;28;46287;-79
2022/07/20 00:36:41;;;;;;;;;18.25;17.00;;;;;27.13;48.32;100824.47;4994414;28;45634;-77
2022/07/20 00:39:07;;;;;;;;;20.25;18.00;;;;;27.11;48.83;100811.03;4994286;28;45720;-79
2022/07/20 00:41:32;;;;;;;;;24.50;21.25;;;;;26.92;49.56;100752.13;4991883;28;45735;-79
2022/07/20 00:44:08;;;;;;;;;22.75;21.75;;;;;26.99;50.82;100752.44;4989672;28;45770;-78
2022/07/20 00:46:39;;;;;;;;;21.25;18.25;;;;;26.86;50.89;100735.53;4991250;28;45477;-78
2022/07/20 00:49:06;;;;;;;;;20.00;18.75;;;;;26.79;51.90;100723.50;4991693;28;45468;-78
2022/07/20 00:51:33;;;;;;;;;21.50;20.50;;;;;26.65;51.69;100711.97;4994616;28;45540;-78
2022/07/20 00:53:59;;;;;;;;;22.25;21.00;;;;;26.71;52.39;100711.47;4999013;28;46206;-78
2022/07/20 00:56:24;;;;;;;;;20.75;18.25;;;;;26.67;52.10;100712.72;4993179;28;45511;-78
2022/07/20 00:58:50;;;;;;;;;20.75;19.25;;;;;26.58;52.83;100699.94;4994399;28;45412;-78
2022/07/20 01:01:16;;;;;;;;;22.25;21.25;;;;;26.52;53.46;100697.75;4990803;28;45575;-79
2022/07/20 01:03:41;;;;;;;;;20.50;20.50;;;;;26.40;53.74;100686.97;4991053;28;45539;-79
2022/07/20 01:06:08;;;;;;;;;21.75;21.00;;;;;26.34;53.74;100665.84;4990156;28;45519;-79
2022/07/20 01:08:34;;;;;;;;;22.00;21.50;;;;;26.35;54.58;100674.81;4990622;28;45684;-79
2022/07/20 01:11:00;;;;;;;;;20.25;19.75;;;;;26.30;53.79;100669.78;4989369;28;45742;-79
2022/07/20 01:13:26;;;;;;;;;26.50;22.75;;;;;26.28;54.31;100671.75;4971030;28;46355;-78
2022/07/20 01:15:51;;;;;;;;;22.50;20.50;;;;;26.14;54.08;100645.00;4990806;28;45436;-78
2022/07/20 01:18:17;;;;;;;;;25.00;23.00;;;;;25.89;54.88;100638.91;4992997;28;45814;-79
2022/07/20 01:20:46;;;;;;;;;28.25;25.50;;;;;26.13;55.18;100678.47;4995127;28;45406;-78
2022/07/20 01:23:16;;;;;;;;;30.25;25.00;;;;;26.13;55.44;100670.34;4991711;28;46878;-78
2022/07/20 01:25:41;;;;;;;;;29.50;29.25;;;;;26.08;55.92;100664.47;4989600;28;45512;-78
2022/07/20 01:28:12;;;;;;;;;30.25;24.25;;;;;26.05;56.57;100674.56;4993513;28;45574;-78
2022/07/20 01:30:38;;;;;;;;;38.50;33.00;;;;;26.00;57.48;100670.53;4991506;28;45519;-79
2022/07/20 01:33:04;;;;;;;;;36.00;32.50;;;;;25.98;57.71;100662.53;4989488;28;46342;-78
2022/07/20 01:35:29;;;;;;;;;38.25;34.25;;;;;25.87;58.22;100640.88;4989626;28;45517;-78
2022/07/20 01:37:55;;;;;;;;;47.25;39.25;;;;;25.94;58.13;100661.03;4986652;28;45586;-79
2022/07/20 01:40:20;;;;;;;;;40.25;36.00;;;;;25.92;58.48;100654.88;4966221;28;45428;-78
2022/07/20 01:42:46;;;;;;;;;46.75;38.00;;;;;25.78;59.14;100630.81;4988445;28;45576;-78
2022/07/20 01:45:11;;;;;;;;;46.25;39.00;;;;;25.84;59.65;100663.66;4987320;28;45643;-78
2022/07/20 01:47:37;;;;;;;;;40.00;36.00;;;;;25.83;59.59;100677.31;4991226;28;45629;-78
2022/07/20 01:50:03;;;;;;;;;40.00;37.25;;;;;25.84;59.81;100695.25;4994384;28;45456;-77
2022/07/20 01:52:28;;;;;;;;;44.00;38.00;;;;;25.82;59.79;100708.91;4990816;28;47095;-78
2022/07/20 01:54:53;;;;;;;;;48.50;39.75;;;;;25.83;59.25;100694.41;4990416;28;45665;-77
2022/07/20 01:57:19;;;;;;;;;45.00;39.75;;;;;25.81;60.60;100699.09;4989436;28;45589;-79
2022/07/20 01:59:44;;;;;;;;;41.75;38.75;;;;;25.79;60.51;100719.16;4989268;28;45703;-79
2022/07/20 02:02:13;;;;;;;;;45.50;40.00;;;;;25.69;60.61;100736.13;4989360;28;45805;-78
2022/07/20 02:04:38;;;;;;;;;49.25;41.25;;;;;25.82;60.84;100773.03;4989139;28;45535;-79
2022/07/20 02:07:04;;;;;;;;;48.75;40.25;;;;;25.67;60.09;100775.13;4988160;28;45575;-79
2022/07/20 02:09:29;;;;;;;;;50.50;40.75;;;;;25.79;60.71;100781.41;4990093;28;45568;-79
2022/07/20 02:11:56;;;;;;;;;48.50;38.75;;;;;25.81;60.68;100757.75;4989916;28;46280;-77
2022/07/20 02:14:21;;;;;;;;;53.00;41.00;;;;;25.82;60.38;100749.50;4991140;28;45462;-77
2022/07/20 02:16:47;;;;;;;;;51.75;42.75;;;;;25.81;60.31;100753.22;4990782;28;45590;-78
2022/07/20 02:19:12;;;;;;;;;53.00;44.75;;;;;25.70;60.28;100743.25;4974082;28;45666;-79
2022/07/20 02:21:38;;;;;;;;;59.50;46.75;;;;;25.74;59.99;100737.63;4991113;28;47117;-79
2022/07/20 02:24:04;;;;;;;;;54.00;44.50;;;;;25.74;59.98;100748.44;4972281;28;46105;-78
2022/07/20 02:26:30;;;;;;;;;51.00;44.00;;;;;25.73;60.09;100771.91;4989254;28;45436;-77
2022/07/20 02:28:55;;;;;;;;;54.00;45.00;;;;;25.71;60.29;100773.91;4987776;28;45696;-78
2022/07/20 02:31:24;;;;;;;;;52.25;41.00;;;;;25.72;60.01;100772.88;4989308;28;45508;-78
2022/07/20 02:33:50;;;;;;;;;50.00;42.00;;;;;25.70;60.75;100786.53;4989023;28;45515;-79
2022/07/20 02:36:16;;;;;;;;;52.50;45.25;;;;;25.59;60.69;100786.56;4988829;28;45591;-81
2022/07/20 02:38:44;;;;;;;;;51.50;42.50;;;;;25.58;60.41;100798.34;4973488;28;45637;-79
2022/07/20 02:41:09;;;;;;;;;60.75;48.75;;;;;25.56;60.34;100789.50;4989140;28;45521;-78
2022/07/20 02:43:35;;;;;;;;;55.00;45.50;;;;;25.28;59.95;100748.41;4989042;28;45537;-78
2022/07/20 02:46:01;;;;;;;;;61.50;49.00;;;;;25.52;60.09;100804.25;4990599;28;45702;-78
2022/07/20 02:48:26;;;;;;;;;56.00;45.25;;;;;25.56;60.17;100826.53;4993541;28;45493;-80
2022/07/20 02:50:52;;;;;;;;;59.25;48.00;;;;;25.49;59.69;100815.31;4989400;28;45657;-79
2022/07/20 02:53:17;;;;;;;;;62.00;49.50;;;;;25.51;59.64;100824.19;4988241;28;45522;-78
2022/07/20 02:55:43;;;;;;;;;55.50;44.00;;;;;25.46;59.89;100824.56;4987966;28;45607;-78
2022/07/20 02:58:11;;;;;;;;;54.50;43.00;;;;;25.30;59.70;100816.78;4989467;28;45578;-78
2022/07/20 03:00:37;;;;;;;;;56.50;46.75;;;;;25.39;59.62;100860.31;4988230;28;45702;-79
2022/07/20 03:03:04;;;;;;;;;61.25;47.75;;;;;25.24;59.40;100865.91;4990106;28;45507;-79
2022/07/20 03:05:30;;;;;;;;;58.75;48.75;;;;;25.34;59.45;100891.31;4990103;28;45466;-79
2022/07/20 03:07:55;;;;;;;;;54.00;44.75;;;;;25.30;59.45;100908.75;4989922;28;45702;-78
2022/07/20 03:10:21;;;;;;;;;52.25;43.25;;;;;25.17;59.61;100897.09;4990484;28;45578;-79
2022/07/20 03:12:46;;;;;;;;;59.00;48.00;;;;;25.29;60.06;100908.81;4990399;28;45736;-78
2022/07/20 03:15:12;;;;;;;;;58.75;47.00;;;;;25.27;60.38;100913.50;4990722;28;45594;-77
2022/07/20 03:17:50;;;;;;;;;54.00;43.50;;;;;25.21;60.63;100917.53;4995377;28;45522;-77
2022/07/20 03:20:20;;;;;;;;;55.50;43.50;;;;;25.18;61.14;100915.06;4992441;28;45456;-78
2022/07/20 03:22:46;;;;;;;;;55.75;46.00;;;;;25.15;61.05;100904.47;4991122;28;45646;-78
2022/07/20 03:25:11;;;;;;;;;55.25;47.75;;;;;25.15;61.20;100899.06;4992564;28;45496;-78
2022/07/20 03:27:37;;;;;;;;;56.00;44.50;;;;;25.16;61.25;100895.41;4993985;28;45504;-79
2022/07/20 03:30:04;;;;;;;;;53.25;44.50;;;;;25.17;61.22;100887.16;4975805;28;48426;-78
2022/07/20 03:32:29;;;;;;;;;52.50;44.50;;;;;25.20;60.77;100899.56;4998510;28;45596;-80
2022/07/20 03:34:55;;;;;;;;;54.25;45.00;;;;;25.23;60.98;100895.78;4995516;28;45552;-79
2022/07/20 03:37:21;;;;;;;;;57.75;45.75;;;;;25.27;60.46;100908.94;4993649;28;45591;-80
2022/07/20 03:39:47;;;;;;;;;48.75;40.25;;;;;25.25;60.93;100910.91;4993142;28;46311;-78
2022/07/20 03:42:12;;;;;;;;;57.50;46.00;;;;;25.31;61.42;100896.94;4994348;28;45521;-79
2022/07/20 03:44:37;;;;;;;;;54.00;45.00;;;;;25.21;61.72;100892.34;4994290;28;45537;-79
2022/07/20 03:47:03;;;;;;;;;45.75;39.75;;;;;25.29;61.71;100908.81;4994921;28;45487;-77
2022/07/20 03:49:28;;;;;;;;;49.75;40.25;;;;;25.12;62.37;100893.91;4993196;28;45606;-79
2022/07/20 03:51:53;;;;;;;;;49.25;40.00;;;;;25.18;62.07;100926.72;4993613;28;45578;-78
2022/07/20 03:54:19;;;;;;;;;51.00;40.25;;;;;25.10;62.87;100917.47;4989359;28;45906;-78
2022/07/20 03:56:44;;;;;;;;;51.00;40.50;;;;;25.12;61.91;100947.97;4991022;28;45565;-77
2022/07/20 03:59:11;;;;;;;;;50.25;41.25;;;;;25.10;63.73;100975.13;4993127;28;46253;-78
2022/07/20 04:01:37;;;;;;;;;41.25;36.25;;;;;24.96;62.40;100981.56;4991169;28;45589;-79
2022/07/20 04:04:03;;;;;;;;;39.75;36.50;;;;;25.00;62.68;100987.59;4991188;28;45587;-79
2022/07/20 04:06:29;;;;;;;;;37.50;36.00;;;;;24.95;62.13;100997.91;4992561;28;45540;-79
2022/07/20 04:08:55;;;;;;;;;39.00;35.25;;;;;24.66;61.00;100936.06;4990960;28;46085;-79
2022/07/20 04:11:20;;;;;;;;;36.50;34.75;;;;;24.78;60.79;100950.47;4992228;28;45620;-79
2022/07/20 04:13:45;;;;;;;;;33.75;33.00;;;;;24.73;62.02;100952.66;4993486;28;45572;-78
2022/07/20 04:16:12;;;;;;;;;34.25;33.00;;;;;24.63;62.21;100947.94;4974819;28;45634;-78
2022/07/20 04:18:37;;;;;;;;;37.75;30.00;;;;;24.55;63.65;100939.53;4992886;28;46134;-78
2022/07/20 04:21:03;;;;;;;;;34.00;31.50;;;;;24.47;64.61;100939.19;4992499;28;45535;-79
2022/07/20 04:23:28;;;;;;;;;40.75;34.00;;;;;24.41;64.26;100907.25;4991690;28;45892;-78
2022/07/20 04:25:54;;;;;;;;;39.00;33.75;;;;;24.35;62.04;100899.59;4990067;28;45454;-78
2022/07/20 04:28:19;;;;;;;;;34.50;28.75;;;;;24.26;63.29;100885.78;4990735;28;45468;-79
2022/07/20 04:30:44;;;;;;;;;30.25;27.50;;;;;24.20;64.89;100888.94;4991355;28;45578;-79
2022/07/20 04:33:10;;;;;;;;;18.00;18.00;;;;;24.11;63.86;100897.69;4991794;28;45519;-78
2022/07/20 04:35:37;;;;;;;;;28.50;25.50;;;;;24.01;59.31;100891.25;4989740;28;45659;-79
2022/07/20 04:38:02;;;;;;;;;25.25;24.00;;;;;23.66;63.54;100838.78;4992629;28;45580;-79
2022/07/20 04:40:28;;;;;;;;;25.00;24.00;;;;;23.85;61.01;100870.72;4993547;28;45669;-78
2022/07/20 04:42:53;;;;;;;;;25.00;24.50;;;;;23.84;59.79;100862.69;4994807;28;45523;-79
2022/07/20 04:45:19;;;;;;;;;23.25;21.00;;;;;23.74;60.37;100835.53;4993714;28;45689;-78
2022/07/20 04:47:45;;;;;;;;;26.25;25.25;;;;;23.67;60.40;100832.41;4990832;28;45732;-79
2022/07/20 04:50:10;;;;;;;;;23.25;23.00;;;;;23.69;60.21;100843.94;4992384;28;45495;-79
2022/07/20 04:52:36;;;;;;;;;22.75;20.25;;;;;23.64;60.70;100861.44;4992104;28;45678;-80
2022/07/20 04:55:02;;;;;;;;;19.75;19.25;;;;;23.65;61.21;100871.25;4990108;28;45460;-78
2022/07/20 04:57:27;;;;;;;;;24.75;24.50;;;;;23.65;61.16;100895.53;4987205;28;46050;-79
2022/07/20 04:59:53;;;;;;;;;23.50;21.50;;;;;23.56;61.69;100907.81;4991399;28;45468;-78
2022/07/20 05:02:19;;;;;;;;;21.50;21.00;;;;;23.39;62.92;100927.88;4993998;28;45815;-79
2022/07/20 05:04:46;;;;;;;;;25.75;22.25;;;;;23.47;64.25;100947.06;4977187;28;45612;-79
2022/07/20 05:07:13;;;;;;;;;28.00;24.50;;;;;23.48;63.54;100958.75;4992351;28;46174;-79
2022/07/20 05:09:38;;;;;;;;;23.00;23.00;;;;;23.51;62.89;100980.13;4996092;28;45453;-78
2022/07/20 05:12:04;;;;;;;;;27.00;25.00;;;;;23.45;63.93;100958.97;4993644;28;45511;-79
2022/07/20 05:14:29;;;;;;;;;30.00;25.00;;;;;23.50;64.11;100938.78;4990925;28;45562;-78
2022/07/20 05:16:56;;;;;;;;;27.50;22.75;;;;;23.45;64.53;100935.53;4987619;28;45816;-79
2022/07/20 05:19:22;;;;;;;;;25.75;24.25;;;;;23.50;64.58;100954.94;4966215;28;45497;-78
2022/07/20 05:21:47;;;;;;;;;25.00;23.75;;;;;23.24;63.86;100911.78;4990405;28;45456;-79
2022/07/20 05:24:13;;;;;;;;;20.50;20.50;;;;;23.46;65.54;100913.00;4992084;28;45451;-78
2022/07/20 05:26:39;;;;;;;;;25.50;21.25;;;;;23.40;65.28;100849.56;4991102;28;45718;-78
2022/07/20 05:29:04;;;;;;;;;22.00;20.75;;;;;23.26;62.51;100829.91;4989585;28;45640;-78
2022/07/20 05:31:30;;;;;;;;;20.00;20.00;;;;;23.23;61.03;100830.97;4989468;28;45756;-79
2022/07/20 05:33:57;;;;;;;;;18.00;18.00;;;;;23.20;62.63;100825.81;4990699;28;45540;-79
2022/07/20 05:36:23;;;;;;;;;27.50;23.00;;;;;23.18;62.88;100844.78;4989746;28;46208;-79
2022/07/20 05:38:49;;;;;;;;;17.00;15.00;;;;;23.03;58.85;100861.97;4989306;28;45607;-80
2022/07/20 05:41:14;;;;;;;;;23.00;20.50;;;;;22.88;61.40;100853.09;4993736;28;45446;-78
2022/07/20 05:43:39;;;;;;;;;21.00;18.25;;;;;22.95;61.05;100880.50;4997601;28;45475;-79
2022/07/20 05:46:05;;;;;;;;;21.00;15.50;;;;;22.95;62.31;100883.19;4991323;28;45474;-80
2022/07/20 05:48:31;;;;;;;;;16.25;16.25;;;;;22.98;62.85;100885.69;4991630;28;45446;-79
2022/07/20 05:50:56;;;;;;;;;18.50;16.50;;;;;22.93;60.73;100886.00;4988662;28;45712;-79
2022/07/20 05:53:22;;;;;;;;;21.25;18.00;;;;;22.91;61.61;100905.91;4991060;28;46784;-79
2022/07/20 05:55:47;;;;;;;;;20.50;19.50;;;;;22.95;62.52;100912.84;4989445;28;46117;-78
2022/07/20 05:58:14;;;;;;;;;18.00;17.25;;;;;22.85;61.41;100918.84;4991189;28;45463;-79
2022/07/20 06:00:39;;;;;;;;;18.25;16.75;;;;;22.86;61.40;100927.78;4987275;28;45512;-80
2022/07/20 06:03:05;;;;;;;;;20.75;18.75;;;;;22.78;62.26;100916.66;4989294;28;45600;-79
2022/07/20 06:05:31;;;;;;;;;20.00;19.50;;;;;22.75;62.74;100890.78;4971798;28;46476;-78
2022/07/20 06:08:00;;;;;;;;;23.50;20.00;;;;;22.75;63.68;100874.63;4991614;28;45572;-79
2022/07/20 06:10:26;;;;;;;;;22.75;20.00;;;;;22.77;63.81;100888.84;4988803;28;45519;-79
2022/07/20 06:12:51;;;;;;;;;21.50;18.25;;;;;22.81;62.67;100911.94;4960381;28;45596;-81
2022/07/20 06:15:17;;;;;;;;;23.75;23.50;;;;;22.81;62.71;100905.69;4992591;28;46125;-85
2022/07/20 06:17:42;;;;;;;;;23.75;21.25;;;;;22.83;62.50;100909.97;4976431;28;45692;-79
2022/07/20 06:20:10;;;;;;;;;16.25;15.75;;;;;22.76;63.12;100913.19;4989273;28;45474;-80
2022/07/20 06:22:37;;;;;;;;;26.00;22.50;;;;;22.81;64.04;100949.66;4990374;28;45520;-80
2022/07/20 06:25:04;;;;;;;;;19.25;16.75;;;;;22.79;64.26;100965.06;4993327;28;46830;-82
2022/07/20 06:27:30;;;;;;;;;21.50;21.25;;;;;22.72;65.13;100977.19;5000312;28;45495;-80
2022/07/20 06:29:57;;;;;;;;;21.00;16.75;;;;;22.66;64.80;100996.44;4993504;28;45723;-81
2022/07/20 06:32:22;;;;;;;;;22.50;20.00;;;;;22.50;65.21;101016.28;4995115;28;45548;-81
2022/07/20 06:34:47;;;;;;;;;23.50;20.00;;;;;22.46;65.61;101014.72;4992324;28;45421;-81
2022/07/20 06:37:13;;;;;;;;;18.50;16.75;;;;;22.45;65.89;101007.59;4990943;28;45467;-81
2022/07/20 06:39:38;;;;;;;;;21.00;21.00;;;;;22.42;66.73;100997.03;4990117;28;45453;-81
2022/07/20 06:42:03;;;;;;;;;15.25;13.75;;;;;22.39;66.55;101008.00;4988070;28;45396;-81
2022/07/20 06:44:29;;;;;;;;;16.00;15.75;;;;;22.27;65.86;101022.19;4990453;28;46304;-79
2022/07/20 06:46:54;;;;;;;;;22.00;16.00;;;;;22.13;67.54;101018.53;4989687;28;45496;-82
2022/07/20 06:49:21;;;;;;;;;22.00;20.00;;;;;22.07;66.85;101004.59;4991267;28;45458;-81
2022/07/20 06:51:46;;;;;;;;;18.75;17.25;;;;;22.08;66.58;101000.94;4993159;28;45653;-81
2022/07/20 06:54:11;;;;;;;;;17.75;16.50;;;;;21.99;65.91;100987.09;4992941;28;45508;-81
2022/07/20 06:56:37;;;;;;;;;21.00;18.75;;;;;21.96;65.89;100981.03;4997330;28;45805;-81
2022/07/20 06:59:02;;;;;;;;;22.00;18.75;;;;;21.94;65.95;100972.19;4996433;28;45595;-81
2022/07/20 07:01:27;;;;;;;;;25.25;21.00;;;;;21.89;66.69;100955.47;4993882;28;45655;-84
2022/07/20 07:03:53;;;;;;;;;21.00;19.00;;;;;21.92;67.34;100966.88;4992374;28;45496;-81
2022/07/20 07:06:18;;;;;;;;;21.00;21.00;;;;;21.90;68.39;100968.81;4993610;28;45507;-81
2022/07/20 07:08:43;;;;;;;;;21.75;20.25;;;;;21.87;66.98;100970.84;4995586;28;45792;-81
2022/07/20 07:11:09;;;;;;;;;22.25;20.00;;;;;21.72;68.24;100948.44;4995701;28;45476;-81
2022/07/20 07:13:34;;;;;;;;;21.25;17.00;;;;;21.68;69.28;100946.88;4993431;28;46741;-79
2022/07/20 07:16:00;;;;;;;;;22.25;21.25;;;;;21.67;68.84;100970.22;4992036;28;45635;-82
2022/07/20 07:18:25;;;;;;;;;19.00;19.00;;;;;21.65;69.18;100972.13;4990868;28;45411;-82
2022/07/20 07:20:50;;;;;;;;;18.50;18.00;;;;;21.58;68.84;100976.16;4992305;28;45620;-82
2022/07/20 07:23:16;;;;;;;;;18.25;18.25;;;;;21.51;69.62;100977.47;4992702;28;45596;-81
2022/07/20 07:25:41;;;;;;;;;21.25;18.00;;;;;21.46;69.93;100965.13;4988207;28;45570;-81
2022/07/20 07:28:06;;;;;;;;;21.25;20.25;;;;;21.47;72.33;100941.81;4990908;28;45580;-80
2022/07/20 07:30:33;;;;;;;;;27.75;21.00;;;;;21.36;73.76;100963.09;4990627;28;45483;-82
2022/07/20 07:32:58;;;;;;;;;17.50;17.00;;;;;21.24;72.98;100981.69;4996389;28;45368;-81
2022/07/20 07:35:23;;;;;;;;;28.00;19.75;;;;;21.23;73.15;100984.47;4991068;28;45325;-84
2022/07/20 07:37:49;;;;;;;;;26.00;22.25;;;;;21.11;73.29;100945.72;5000815;28;45306;-84
2022/07/20 07:40:14;;;;;;;;;21.25;21.00;;;;;21.16;72.65;100962.44;4988625;28;45548;-79
2022/07/20 07:42:39;;;;;;;;;23.75;21.25;;;;;21.19;71.74;100982.91;4992472;28;45697;-80
2022/07/20 07:45:07;;;;;;;;;15.50;15.25;;;;;21.18;71.11;100995.47;4990969;28;45467;-80
2022/07/20 07:47:34;;;;;;;;;19.00;19.00;;;;;21.12;70.42;100993.16;4992500;28;45577;-80
2022/07/20 07:50:00;;;;;;;;;23.75;20.50;;;;;21.19;71.98;101018.69;4978765;28;45503;-82
2022/07/20 07:52:25;;;;;;;;;22.50;21.75;;;;;21.21;72.16;101002.47;4990251;28;45761;-82
2022/07/20 07:54:50;;;;;;;;;23.75;22.25;;;;;21.10;71.90;100974.44;4993125;28;45543;-81
2022/07/20 07:57:16;;;;;;;;;22.50;19.00;;;;;21.56;72.12;101037.22;4992296;28;45506;-82
2022/07/20 07:59:42;;;;;;;;;23.25;19.50;;;;;21.56;71.11;101013.91;4989520;28;45493;-82
2022/07/20 08:02:08;;;;;;;;;22.50;20.75;;;;;21.65;70.97;101020.53;4993098;28;46398;-82
2022/07/20 08:04:34;;;;;;;;;21.25;20.00;;;;;21.86;70.12;101037.22;4994404;28;45495;-83
2022/07/20 08:06:59;;;;;;;;;21.75;17.50;;;;;22.03;69.38;101022.75;4992198;28;45345;-82
2022/07/20 08:09:25;;;;;;;;;21.50;19.50;;;;;22.55;68.68;101013.28;4999414;28;45338;-81
2022/07/20 08:11:51;;;;;;;;;26.50;24.50;;;;;23.18;66.99;101006.53;4996929;28;46175;-82
2022/07/20 08:14:17;;;;;;;;;23.50;20.00;;;;;23.90;65.51;101030.50;5000809;28;45491;-79
2022/07/20 08:16:42;;;;;;;;;24.25;21.50;;;;;23.92;62.80;101017.75;4994273;28;45560;-84
2022/07/20 08:19:07;;;;;;;;;18.00;16.25;;;;;23.93;62.66;101024.03;4992343;28;45572;-82
2022/07/20 08:21:33;;;;;;;;;21.00;20.75;;;;;23.70;62.15;101012.97;4970138;28;46034;-84
2022/07/20 08:23:58;;;;;;;;;19.50;14.75;;;;;23.74;62.69;101040.59;4988832;28;46031;-83
2022/07/20 08:26:23;;;;;;;;;24.00;22.50;;;;;23.73;62.73;101039.72;4991174;28;45552;-82
2022/07/20 08:28:49;;;;;;;;;23.50;22.00;;;;;23.75;62.52;101039.63;4990621;28;45576;-83
2022/07/20 08:31:14;;;;;;;;;20.75;18.00;;;;;23.51;61.79;101013.34;4987379;28;46346;-83
2022/07/20 08:33:39;;;;;;;;;21.75;19.50;;;;;23.53;61.12;101016.78;4986960;28;45517;-83
2022/07/20 08:36:05;;;;;;;;;23.75;20.50;;;;;23.41;61.65;101001.44;4992069;28;45509;-84
2022/07/20 08:38:30;;;;;;;;;25.00;21.25;;;;;23.53;61.34;101037.50;4991409;28;45277;-81
2022/07/20 08:40:57;;;;;;;;;21.25;21.25;;;;;23.20;61.58;100980.34;4985981;28;45330;-82
2022/07/20 08:43:23;;;;;;;;;20.75;16.00;;;;;23.39;61.83;101009.63;4984279;28;45360;-82
2022/07/20 08:45:50;;;;;;;;;24.00;18.75;;;;;23.40;61.62;101016.75;4988234;28;45535;-78
2022/07/20 08:48:18;;;;;;;;;24.25;23.50;;;;;23.13;61.86;100979.03;4989553;28;45496;-82
2022/07/20 08:50:45;;;;;;;;;17.75;17.50;;;;;23.56;62.30;101057.06;4983542;28;47136;-82
2022/07/20 08:53:11;;;;;;;;;25.75;21.25;;;;;23.43;61.57;101021.09;4986958;28;45454;-83
2022/07/20 08:55:36;;;;;;;;;21.00;20.00;;;;;23.58;61.55;101044.31;4989186;28;45745;-82
2022/07/20 08:58:02;;;;;;;;;18.75;18.75;;;;;23.88;61.26;101040.56;4993310;28;45731;-81
2022/07/20 09:00:27;;;;;;;;;17.25;17.25;;;;;24.29;59.22;101036.78;4989034;28;45703;-82
2022/07/20 09:03:02;;;;;;;;;22.25;19.25;;;;;24.34;59.00;101024.78;4985359;28;45506;-81
2022/07/20 09:05:33;;;;;;;;;23.75;19.00;;;;;24.46;58.76;101026.59;4992831;28;45488;-83
2022/07/20 09:08:00;;;;;;;;;19.00;18.25;;;;;24.19;58.57;100999.75;4972229;28;46080;-82
2022/07/20 09:10:28;;;;;;;;;19.25;19.25;;;;;24.45;58.12;101033.00;4997852;28;45408;-82
2022/07/20 09:13:06;;;;;;;;;19.00;18.50;;;;;24.67;58.29;101042.28;4994389;28;45528;-82
2022/07/20 09:15:42;;;;;;;;;23.50;20.25;;;;;24.84;57.10;101020.31;4995925;28;45440;-81
2022/07/20 09:18:09;;;;;;;;;17.50;17.50;;;;;25.06;56.47;101003.38;5000367;28;45599;-82
2022/07/20 09:20:37;;;;;;;;;19.25;15.00;;;;;25.27;55.89;101029.78;4994375;28;46025;-83
2022/07/20 09:23:04;;;;;;;;;21.00;20.75;;;;;25.21;55.37;101012.19;5002403;28;45385;-81
2022/07/20 09:25:30;;;;;;;;;15.75;14.75;;;;;25.22;55.93;100996.81;5009350;28;45670;-83
2022/07/20 09:27:56;;;;;;;;;15.25;14.75;;;;;25.30;55.88;101016.91;5009359;28;44981;-83
2022/07/20 09:30:22;;;;;;;;;15.25;13.75;;;;;25.36;54.54;101024.56;5008132;28;45494;-82
2022/07/20 09:32:54;;;;;;;;;15.50;13.25;;;;;25.44;54.72;101031.25;5002647;28;45531;-83
2022/07/20 09:35:21;;;;;;;;;17.50;15.50;;;;;25.26;54.55;101030.75;4992311;28;45369;-83
2022/07/20 09:37:47;;;;;;;;;18.50;14.75;;;;;25.25;55.05;101029.03;4997937;28;45559;-83
2022/07/20 09:40:13;;;;;;;;;13.25;13.25;;;;;24.90;55.68;100986.56;4976923;28;45573;-82
2022/07/20 09:42:40;;;;;;;;;14.00;13.50;;;;;24.90;55.25;101036.09;4989963;28;45528;-83
2022/07/20 09:45:21;;;;;;;;;14.50;13.75;;;;;24.68;56.50;101046.72;4994773;28;45558;-84
2022/07/20 09:48:10;;;;;;;;;8.75;8.75;;;;;24.47;56.83;101040.00;4975262;28;45697;-81
2022/07/20 09:50:42;;;;;;;;;14.00;12.50;;;;;24.25;56.55;101054.19;4990121;28;48117;-81
2022/07/20 09:53:10;;;;;;;;;11.25;11.25;;;;;24.09;57.55;101061.63;4990964;28;45506;-82
2022/07/20 09:55:37;;;;;;;;;14.50;12.25;;;;;23.97;57.65;101057.06;4989879;28;45515;-80
2022/07/20 09:58:03;;;;;;;;;13.50;13.00;;;;;23.87;57.92;101073.91;4994305;28;45481;-81
2022/07/20 10:00:31;;;;;;;;;13.50;10.25;;;;;23.78;58.38;101071.78;4987152;28;46687;-81
2022/07/20 10:02:59;;;;;;;;;11.50;11.50;;;;;23.71;59.61;101056.97;4987616;28;45455;-79
2022/07/20 10:05:29;;;;;;;;;12.00;12.00;;;;;23.73;60.10;101065.81;4986410;28;45588;-81
2022/07/20 10:07:55;;;;;;;;;11.50;10.75;;;;;23.76;60.24;101065.63;4988020;28;45722;-81
2022/07/20 10:10:21;;;;;;;;;11.25;11.25;;;;;23.72;60.20;101061.41;4989733;28;46346;-81
2022/07/20 10:12:46;;;;;;;;;10.75;10.75;;;;;23.75;59.32;101058.50;4988189;28;45547;-81
2022/07/20 10:15:15;;;;;;;;;14.50;10.50;;;;;23.76;59.23;101041.31;4989465;28;45561;-82
2022/07/20 10:17:43;;;;;;;;;13.50;13.50;;;;;23.80;59.66;101031.22;4991743;28;45479;-79
2022/07/20 10:20:34;;;;;;;;;14.00;12.25;;;;;24.01;59.52;101061.28;4989308;28;45507;-81
2022/07/20 10:23:14;;;;;;;;;11.25;10.75;;;;;23.99;58.49;101076.72;4991110;28;45574;-81
2022/07/20 10:25:41;;;;;;;;;8.25;8.00;;;;;23.80;58.32;101061.75;4989118;28;45567;-81
2022/07/20 10:28:32;;;;;;;;;8.25;7.25;;;;;23.88;58.46;101083.72;4990629;28;45552;-81
2022/07/20 10:31:16;;;;;;;;;6.50;6.00;;;;;23.83;57.96;101079.56;4988592;28;45453;-81
2022/07/20 10:33:42;;;;;;;;;10.00;9.00;;;;;23.50;58.29;101029.63;4985246;28;45528;-81
2022/07/20 10:38:55;;;;;;;;;7.75;7.75;;;;;23.53;58.50;101057.25;4990235;28;45734;-78
2022/07/20 10:41:33;;;;;;;;;8.75;8.00;;;;;23.28;58.65;101043.69;4989550;28;45583;-80
2022/07/20 10:44:19;;;;;;;;;9.75;7.00;;;;;23.31;58.92;101059.66;4972193;28;45789;-82
2022/07/20 10:46:46;;;;;;;;;12.00;10.25;;;;;23.21;59.95;101064.78;4989237;28;45531;-81
2022/07/20 10:49:11;;;;;;;;;10.00;8.50;;;;;23.09;59.98;101052.06;4991710;28;45572;-79
2022/07/20 10:51:37;;;;;;;;;9.75;7.50;;;;;23.19;60.43;101066.72;4989622;28;47255;-80
2022/07/20 10:54:30;;;;;;;;;10.00;8.75;;;;;23.19;61.06;101062.19;4974042;28;45520;-81
2022/07/20 10:56:57;;;;;;;;;5.50;5.50;;;;;22.54;60.21;100973.84;4994342;28;45444;-80
2022/07/20 10:59:22;;;;;;;;;7.25;7.25;;;;;22.95;60.86;101074.53;4993570;28;45623;-80
2022/07/20 11:01:48;;;;;;;;;8.50;8.50;;;;;22.71;61.14;101050.88;4998059;28;45491;-83
2022/07/20 11:04:15;;;;;;;;;10.00;9.00;;;;;22.73;61.58;101067.81;4997560;28;45428;-83
2022/07/20 11:06:41;;;;;;;;;6.75;5.50;;;;;22.51;61.34;101027.91;4996042;28;45487;-81
2022/07/20 11:09:06;;;;;;;;;6.25;6.25;;;;;22.82;61.46;101083.41;4982443;28;45538;-79
2022/07/20 11:11:36;;;;;;;;;8.50;8.00;;;;;22.88;61.37;101080.31;4997673;28;45414;-81
2022/07/20 11:14:05;;;;;;;;;10.00;10.00;;;;;22.69;61.94;101053.66;4990743;28;45483;-81